sensor_id;sensor_type;location;lat;lon;timestamp;pressure;altitude;pressure_sealevel;temperature;humidity
18323;BME280;9287;49.456;11.064;2023-02-13T00:01:25;100204.19;;;5.69;100.00
18323;BME280;9287;49.456;11.064;2023-02-13T00:03:52;100201.97;;;5.61;100.00
18323;BME280;9287;49.456;11.064;2023-02-13T00:06:20;100201.41;;;5.49;100.00
18323;BME280;9287;49.456;11.064;2023-02-13T00:08:48;100204.06;;;5.39;100.00
18323;BME280;9287;49.456;11.064;2023-02-13T00:11:16;100206.50;;;5.35;100.00
18323;BME280;9287;49.456;11.064;2023-02-13T00:13:45;100199.94;;;5.26;100.00
18323;BME280;9287;49.456;11.064;2023-02-13T00:16:13;100205.88;;;5.18;100.00
18323;BME280;9287;49.456;11.064;2023-02-13T00:18:40;100199.81;;;5.06;100.00
18323;BME280;9287;49.456;11.064;2023-02-13T00:21:11;100204.94;;;4.97;100.00
18323;BME280;9287;49.456;11.064;2023-02-13T00:23:39;100201.94;;;4.94;100.00
18323;BME280;9287;49.456;11.064;2023-02-13T00:26:09;100201.31;;;4.86;100.00
18323;BME280;9287;49.456;11.064;2023-02-13T00:28:37;100203.50;;;4.84;100.00
18323;BME280;9287;49.456;11.064;2023-02-13T00:31:08;100205.06;;;4.75;100.00
18323;BME280;9287;49.456;11.064;2023-02-13T00:33:36;100201.72;;;4.68;100.00
18323;BME280;9287;49.456;11.064;2023-02-13T00:36:06;100213.66;;;4.67;100.00
18323;BME280;9287;49.456;11.064;2023-02-13T00:38:34;100209.16;;;4.46;100.00
18323;BME280;9287;49.456;11.064;2023-02-13T00:41:02;100203.09;;;4.34;100.00
18323;BME280;9287;49.456;11.064;2023-02-13T00:43:31;100203.00;;;4.24;100.00
18323;BME280;9287;49.456;11.064;2023-02-13T00:45:59;100209.09;;;4.41;100.00
18323;BME280;9287;49.456;11.064;2023-02-13T00:48:29;100209.53;;;4.28;100.00
18323;BME280;9287;49.456;11.064;2023-02-13T00:50:57;100213.75;;;4.13;100.00
18323;BME280;9287;49.456;11.064;2023-02-13T00:53:26;100207.72;;;4.06;100.00
18323;BME280;9287;49.456;11.064;2023-02-13T00:55:54;100219.13;;;3.87;100.00
18323;BME280;9287;49.456;11.064;2023-02-13T00:58:22;100215.63;;;3.64;100.00
18323;BME280;9287;49.456;11.064;2023-02-13T01:00:51;100217.28;;;3.43;100.00
18323;BME280;9287;49.456;11.064;2023-02-13T01:03:19;100220.53;;;3.24;100.00
18323;BME280;9287;49.456;11.064;2023-02-13T01:05:49;100218.50;;;3.14;100.00
18323;BME280;9287;49.456;11.064;2023-02-13T01:08:18;100210.19;;;2.99;100.00
18323;BME280;9287;49.456;11.064;2023-02-13T01:10:47;100207.69;;;2.92;100.00
18323;BME280;9287;49.456;11.064;2023-02-13T01:13:16;100210.31;;;2.87;100.00
18323;BME280;9287;49.456;11.064;2023-02-13T01:15:45;100212.66;;;2.84;100.00
18323;BME280;9287;49.456;11.064;2023-02-13T01:18:14;100212.44;;;2.85;100.00
18323;BME280;9287;49.456;11.064;2023-02-13T01:20:42;100211.03;;;2.83;100.00
18323;BME280;9287;49.456;11.064;2023-02-13T01:23:12;100203.94;;;2.76;100.00
18323;BME280;9287;49.456;11.064;2023-02-13T01:25:40;100211.47;;;2.74;100.00
18323;BME280;9287;49.456;11.064;2023-02-13T01:28:08;100210.31;;;2.70;100.00
18323;BME280;9287;49.456;11.064;2023-02-13T01:30:35;100212.84;;;2.60;100.00
18323;BME280;9287;49.456;11.064;2023-02-13T01:33:03;100209.03;;;2.56;100.00
18323;BME280;9287;49.456;11.064;2023-02-13T01:35:31;100211.63;;;2.51;100.00
18323;BME280;9287;49.456;11.064;2023-02-13T01:37:59;100210.47;;;2.47;100.00
18323;BME280;9287;49.456;11.064;2023-02-13T01:40:28;100210.97;;;2.44;100.00
18323;BME280;9287;49.456;11.064;2023-02-13T01:42:57;100211.16;;;2.37;100.00
18323;BME280;9287;49.456;11.064;2023-02-13T01:45:27;100205.91;;;2.31;100.00
18323;BME280;9287;49.456;11.064;2023-02-13T01:47:58;100213.66;;;2.27;100.00
18323;BME280;9287;49.456;11.064;2023-02-13T01:50:31;100211.28;;;2.31;100.00
18323;BME280;9287;49.456;11.064;2023-02-13T01:53:04;100211.47;;;2.24;100.00
18323;BME280;9287;49.456;11.064;2023-02-13T01:55:37;100214.88;;;2.20;100.00
18323;BME280;9287;49.456;11.064;2023-02-13T01:58:11;100213.25;;;2.19;100.00
18323;BME280;9287;49.456;11.064;2023-02-13T02:00:41;100211.63;;;2.18;100.00
18323;BME280;9287;49.456;11.064;2023-02-13T02:03:12;100204.25;;;2.13;100.00
18323;BME280;9287;49.456;11.064;2023-02-13T02:05:41;100195.44;;;2.18;100.00
18323;BME280;9287;49.456;11.064;2023-02-13T02:08:11;100208.34;;;2.16;100.00
18323;BME280;9287;49.456;11.064;2023-02-13T02:10:42;100217.97;;;2.12;100.00
18323;BME280;9287;49.456;11.064;2023-02-13T02:13:12;100201.78;;;2.12;100.00
18323;BME280;9287;49.456;11.064;2023-02-13T02:15:41;100201.22;;;2.09;100.00
18323;BME280;9287;49.456;11.064;2023-02-13T02:18:15;100202.44;;;2.02;100.00
18323;BME280;9287;49.456;11.064;2023-02-13T02:21:14;100203.38;;;2.07;100.00
18323;BME280;9287;49.456;11.064;2023-02-13T02:27:14;100209.53;;;2.08;100.00
18323;BME280;9287;49.456;11.064;2023-02-13T02:32:53;100201.31;;;2.15;100.00
18323;BME280;9287;49.456;11.064;2023-02-13T02:35:29;100196.41;;;2.12;100.00
18323;BME280;9287;49.456;11.064;2023-02-13T02:38:07;100201.16;;;2.04;100.00
18323;BME280;9287;49.456;11.064;2023-02-13T02:40:56;100204.41;;;2.06;100.00
18323;BME280;9287;49.456;11.064;2023-02-13T02:43:43;100211.25;;;1.97;100.00
18323;BME280;9287;49.456;11.064;2023-02-13T02:46:17;100208.13;;;1.89;100.00
18323;BME280;9287;49.456;11.064;2023-02-13T02:48:52;100214.34;;;1.89;100.00
18323;BME280;9287;49.456;11.064;2023-02-13T02:51:47;100205.22;;;1.90;100.00
18323;BME280;9287;49.456;11.064;2023-02-13T02:54:21;100205.69;;;1.87;100.00
18323;BME280;9287;49.456;11.064;2023-02-13T02:57:08;100201.38;;;1.74;100.00
18323;BME280;9287;49.456;11.064;2023-02-13T02:59:39;100205.75;;;1.64;100.00
18323;BME280;9287;49.456;11.064;2023-02-13T03:02:27;100202.72;;;1.60;100.00
18323;BME280;9287;49.456;11.064;2023-02-13T03:05:18;100205.06;;;1.57;100.00
18323;BME280;9287;49.456;11.064;2023-02-13T03:08:05;100204.72;;;1.65;100.00
18323;BME280;9287;49.456;11.064;2023-02-13T03:10:35;100198.75;;;1.63;100.00
18323;BME280;9287;49.456;11.064;2023-02-13T03:13:34;100204.41;;;1.50;100.00
18323;BME280;9287;49.456;11.064;2023-02-13T03:16:05;100206.06;;;1.51;100.00
18323;BME280;9287;49.456;11.064;2023-02-13T03:18:52;100204.41;;;1.50;100.00
18323;BME280;9287;49.456;11.064;2023-02-13T03:21:46;100202.31;;;1.52;100.00
18323;BME280;9287;49.456;11.064;2023-02-13T03:24:39;100212.84;;;1.42;100.00
18323;BME280;9287;49.456;11.064;2023-02-13T03:27:16;100210.81;;;1.20;100.00
18323;BME280;9287;49.456;11.064;2023-02-13T03:30:15;100205.34;;;1.03;100.00
18323;BME280;9287;49.456;11.064;2023-02-13T03:32:50;100215.41;;;0.96;100.00
18323;BME280;9287;49.456;11.064;2023-02-13T03:35:29;100213.41;;;0.92;100.00
18323;BME280;9287;49.456;11.064;2023-02-13T03:38:24;100208.97;;;0.86;100.00
18323;BME280;9287;49.456;11.064;2023-02-13T03:40:57;100205.59;;;0.79;100.00
18323;BME280;9287;49.456;11.064;2023-02-13T03:43:49;100211.19;;;0.77;100.00
18323;BME280;9287;49.456;11.064;2023-02-13T03:46:21;100206.41;;;0.67;100.00
18323;BME280;9287;49.456;11.064;2023-02-13T03:48:51;100217.50;;;0.71;100.00
18323;BME280;9287;49.456;11.064;2023-02-13T03:51:39;100215.03;;;0.69;100.00
18323;BME280;9287;49.456;11.064;2023-02-13T03:54:16;100211.78;;;0.67;100.00
18323;BME280;9287;49.456;11.064;2023-02-13T03:56:46;100226.03;;;0.56;100.00
18323;BME280;9287;49.456;11.064;2023-02-13T03:59:35;100224.28;;;0.50;100.00
18323;BME280;9287;49.456;11.064;2023-02-13T04:02:09;100225.06;;;0.39;100.00
18323;BME280;9287;49.456;11.064;2023-02-13T04:04:43;100226.56;;;0.35;100.00
18323;BME280;9287;49.456;11.064;2023-02-13T04:07:15;100231.09;;;0.23;100.00
18323;BME280;9287;49.456;11.064;2023-02-13T04:09:59;100229.00;;;0.25;100.00
18323;BME280;9287;49.456;11.064;2023-02-13T04:12:37;100235.66;;;0.22;100.00
18323;BME280;9287;49.456;11.064;2023-02-13T04:15:09;100229.91;;;0.19;100.00
18323;BME280;9287;49.456;11.064;2023-02-13T04:17:41;100229.91;;;0.19;100.00
18323;BME280;9287;49.456;11.064;2023-02-13T04:20:10;100235.22;;;0.25;100.00
18323;BME280;9287;49.456;11.064;2023-02-13T04:22:42;100231.25;;;0.28;100.00
18323;BME280;9287;49.456;11.064;2023-02-13T04:25:13;100233.47;;;0.31;100.00
18323;BME280;9287;49.456;11.064;2023-02-13T04:27:42;100229.16;;;0.30;100.00
18323;BME280;9287;49.456;11.064;2023-02-13T04:30:11;100225.88;;;0.28;100.00
18323;BME280;9287;49.456;11.064;2023-02-13T04:32:38;100229.00;;;0.25;100.00
18323;BME280;9287;49.456;11.064;2023-02-13T04:35:06;100229.00;;;0.25;100.00
18323;BME280;9287;49.456;11.064;2023-02-13T04:37:36;100230.06;;;0.24;100.00
18323;BME280;9287;49.456;11.064;2023-02-13T04:40:05;100220.34;;;0.23;100.00
18323;BME280;9287;49.456;11.064;2023-02-13T04:42:34;100227.38;;;0.24;100.00
18323;BME280;9287;49.456;11.064;2023-02-13T04:45:02;100216.16;;;0.27;100.00
18323;BME280;9287;49.456;11.064;2023-02-13T04:47:30;100222.28;;;0.34;100.00
18323;BME280;9287;49.456;11.064;2023-02-13T04:49:58;100218.50;;;0.35;100.00
18323;BME280;9287;49.456;11.064;2023-02-13T04:52:26;100218.41;;;0.42;100.00
18323;BME280;9287;49.456;11.064;2023-02-13T04:54:53;100223.44;;;0.38;100.00
18323;BME280;9287;49.456;11.064;2023-02-13T04:57:21;100222.28;;;0.34;100.00
18323;BME280;9287;49.456;11.064;2023-02-13T04:59:50;100222.84;;;0.36;100.00
18323;BME280;9287;49.456;11.064;2023-02-13T05:02:18;100219.44;;;0.29;100.00
18323;BME280;9287;49.456;11.064;2023-02-13T05:04:45;100229.38;;;0.28;100.00
18323;BME280;9287;49.456;11.064;2023-02-13T05:07:13;100225.72;;;0.23;100.00
18323;BME280;9287;49.456;11.064;2023-02-13T05:09:41;100228.88;;;0.20;100.00
18323;BME280;9287;49.456;11.064;2023-02-13T05:12:09;100229.47;;;0.22;100.00
18323;BME280;9287;49.456;11.064;2023-02-13T05:14:37;100224.22;;;0.15;100.00
18323;BME280;9287;49.456;11.064;2023-02-13T05:17:06;100227.59;;;0.11;100.00
18323;BME280;9287;49.456;11.064;2023-02-13T05:19:34;100238.69;;;0.14;100.00
18323;BME280;9287;49.456;11.064;2023-02-13T05:22:01;100232.94;;;0.11;100.00
18323;BME280;9287;49.456;11.064;2023-02-13T05:24:47;100225.13;;;0.09;100.00
18323;BME280;9287;49.456;11.064;2023-02-13T05:27:14;100232.72;;;0.12;100.00
18323;BME280;9287;49.456;11.064;2023-02-13T05:29:42;100229.00;;;0.13;100.00
18323;BME280;9287;49.456;11.064;2023-02-13T05:32:11;100234.97;;;0.15;100.00
18323;BME280;9287;49.456;11.064;2023-02-13T05:34:39;100243.25;;;0.14;100.00
18323;BME280;9287;49.456;11.064;2023-02-13T05:37:07;100244.88;;;0.15;100.00
18323;BME280;9287;49.456;11.064;2023-02-13T05:39:34;100253.19;;;0.13;100.00
18323;BME280;9287;49.456;11.064;2023-02-13T05:42:02;100249.31;;;0.21;100.00
18323;BME280;9287;49.456;11.064;2023-02-13T05:44:30;100253.44;;;0.23;100.00
18323;BME280;9287;49.456;11.064;2023-02-13T05:46:58;100259.63;;;0.24;100.00
18323;BME280;9287;49.456;11.064;2023-02-13T05:49:27;100257.97;;;0.23;100.00
18323;BME280;9287;49.456;11.064;2023-02-13T05:51:55;100260.19;;;0.14;100.00
18323;BME280;9287;49.456;11.064;2023-02-13T05:54:23;100261.34;;;0.18;100.00
18323;BME280;9287;49.456;11.064;2023-02-13T05:56:51;100256.09;;;0.12;100.00
18323;BME280;9287;49.456;11.064;2023-02-13T05:59:18;100259.09;;;0.04;100.00
18323;BME280;9287;49.456;11.064;2023-02-13T06:01:49;100258.75;;;0.00;100.00
18323;BME280;9287;49.456;11.064;2023-02-13T06:04:17;100261.06;;;-0.04;100.00
18323;BME280;9287;49.456;11.064;2023-02-13T06:06:46;100267.94;;;-0.08;100.00
18323;BME280;9287;49.456;11.064;2023-02-13T06:09:14;100265.00;;;-0.06;100.00
18323;BME280;9287;49.456;11.064;2023-02-13T06:11:41;100272.25;;;-0.07;100.00
18323;BME280;9287;49.456;11.064;2023-02-13T06:14:09;100280.69;;;-0.03;100.00
18323;BME280;9287;49.456;11.064;2023-02-13T06:16:37;100274.28;;;-0.02;100.00
18323;BME280;9287;49.456;11.064;2023-02-13T06:19:05;100272.50;;;0.04;100.00
18323;BME280;9287;49.456;11.064;2023-02-13T06:21:33;100279.88;;;-0.04;100.00
18323;BME280;9287;49.456;11.064;2023-02-13T06:24:06;100277.19;;;-0.04;100.00
18323;BME280;9287;49.456;11.064;2023-02-13T06:26:34;100278.53;;;-0.13;100.00
18323;BME280;9287;49.456;11.064;2023-02-13T06:29:01;100280.31;;;-0.07;100.00
18323;BME280;9287;49.456;11.064;2023-02-13T06:31:32;100281.66;;;-0.16;100.00
18323;BME280;9287;49.456;11.064;2023-02-13T06:34:01;100281.66;;;-0.16;100.00
18323;BME280;9287;49.456;11.064;2023-02-13T06:36:29;100288.06;;;-0.17;100.00
18323;BME280;9287;49.456;11.064;2023-02-13T06:38:56;100278.53;;;-0.31;100.00
18323;BME280;9287;49.456;11.064;2023-02-13T06:41:25;100285.56;;;-0.30;100.00
18323;BME280;9287;49.456;11.064;2023-02-13T06:43:53;100290.19;;;-0.19;100.00
18323;BME280;9287;49.456;11.064;2023-02-13T06:46:21;100290.75;;;-0.17;100.00
18323;BME280;9287;49.456;11.064;2023-02-13T06:48:49;100292.88;;;-0.19;100.00
18323;BME280;9287;49.456;11.064;2023-02-13T06:51:17;100290.47;;;-0.09;100.00
18323;BME280;9287;49.456;11.064;2023-02-13T06:53:44;100297.78;;;-0.16;100.00
18323;BME280;9287;49.456;11.064;2023-02-13T06:56:12;100306.66;;;-0.15;100.00
18323;BME280;9287;49.456;11.064;2023-02-13T06:58:42;100304.47;;;-0.07;100.00
18323;BME280;9287;49.456;11.064;2023-02-13T07:01:09;100305.09;;;-0.05;100.00
18323;BME280;9287;49.456;11.064;2023-02-13T07:03:38;100302.22;;;0.09;100.00
18323;BME280;9287;49.456;11.064;2023-02-13T07:06:05;100298.47;;;0.10;100.00
18323;BME280;9287;49.456;11.064;2023-02-13T07:08:33;100302.81;;;0.11;100.00
18323;BME280;9287;49.456;11.064;2023-02-13T07:11:01;100297.00;;;0.14;100.00
18323;BME280;9287;49.456;11.064;2023-02-13T07:13:29;100306.22;;;0.18;100.00
18323;BME280;9287;49.456;11.064;2023-02-13T07:16:00;100308.19;;;0.11;100.00
18323;BME280;9287;49.456;11.064;2023-02-13T07:18:28;100313.38;;;0.24;100.00
18323;BME280;9287;49.456;11.064;2023-02-13T07:20:56;100312.56;;;0.35;100.00
18323;BME280;9287;49.456;11.064;2023-02-13T07:23:24;100308.72;;;0.31;100.00
18323;BME280;9287;49.456;11.064;2023-02-13T07:25:52;100311.81;;;0.46;100.00
18323;BME280;9287;49.456;11.064;2023-02-13T07:28:20;100309.59;;;0.55;100.00
18323;BME280;9287;49.456;11.064;2023-02-13T07:30:48;100320.13;;;0.56;100.00
18323;BME280;9287;49.456;11.064;2023-02-13T07:33:17;100312.78;;;0.63;100.00
18323;BME280;9287;49.456;11.064;2023-02-13T07:35:45;100312.66;;;0.70;100.00
18323;BME280;9287;49.456;11.064;2023-02-13T07:38:13;100311.84;;;0.69;100.00
18323;BME280;9287;49.456;11.064;2023-02-13T07:40:41;100315.41;;;0.82;100.00
18323;BME280;9287;49.456;11.064;2023-02-13T07:43:09;100311.06;;;0.92;100.00
18323;BME280;9287;49.456;11.064;2023-02-13T07:45:38;100309.56;;;1.08;100.00
18323;BME280;9287;49.456;11.064;2023-02-13T07:48:06;100312.28;;;1.20;100.00
18323;BME280;9287;49.456;11.064;2023-02-13T07:50:35;100312.72;;;1.28;100.00
18323;BME280;9287;49.456;11.064;2023-02-13T07:53:03;100320.78;;;1.28;100.00
18323;BME280;9287;49.456;11.064;2023-02-13T07:55:31;100318.34;;;1.27;100.00
18323;BME280;9287;49.456;11.064;2023-02-13T07:57:59;100316.44;;;1.39;100.00
18323;BME280;9287;49.456;11.064;2023-02-13T08:00:27;100314.69;;;1.45;100.00
18323;BME280;9287;49.456;11.064;2023-02-13T08:02:57;100320.31;;;1.55;100.00
18323;BME280;9287;49.456;11.064;2023-02-13T08:05:25;100321.47;;;1.59;100.00
18323;BME280;9287;49.456;11.064;2023-02-13T08:07:55;100320.41;;;1.71;100.00
18323;BME280;9287;49.456;11.064;2023-02-13T08:10:22;100322.50;;;1.69;100.00
18323;BME280;9287;49.456;11.064;2023-02-13T08:13:08;100332.56;;;1.86;100.00
18323;BME280;9287;49.456;11.064;2023-02-13T08:15:39;100323.97;;;2.00;100.00
18323;BME280;9287;49.456;11.064;2023-02-13T08:18:07;100329.88;;;2.14;100.00
18323;BME280;9287;49.456;11.064;2023-02-13T08:20:34;100321.94;;;2.36;100.00
18323;BME280;9287;49.456;11.064;2023-02-13T08:23:05;100332.25;;;2.39;100.00
18323;BME280;9287;49.456;11.064;2023-02-13T08:25:33;100318.72;;;2.67;100.00
18323;BME280;9287;49.456;11.064;2023-02-13T08:28:01;100319.56;;;3.01;100.00
18323;BME280;9287;49.456;11.064;2023-02-13T08:30:29;100321.34;;;2.96;100.00
18323;BME280;9287;49.456;11.064;2023-02-13T08:32:57;100318.69;;;3.73;100.00
18323;BME280;9287;49.456;11.064;2023-02-13T08:35:25;100318.88;;;4.32;100.00
18323;BME280;9287;49.456;11.064;2023-02-13T08:37:55;100317.03;;;4.64;100.00
18323;BME280;9287;49.456;11.064;2023-02-13T08:40:24;100317.72;;;4.81;100.00
18323;BME280;9287;49.456;11.064;2023-02-13T08:42:58;100324.97;;;5.08;100.00
18323;BME280;9287;49.456;11.064;2023-02-13T08:45:26;100321.88;;;5.78;100.00
18323;BME280;9287;49.456;11.064;2023-02-13T08:47:55;100317.41;;;6.09;95.53
18323;BME280;9287;49.456;11.064;2023-02-13T08:50:24;100323.50;;;6.37;93.23
18323;BME280;9287;49.456;11.064;2023-02-13T08:52:52;100326.28;;;6.72;89.22
18323;BME280;9287;49.456;11.064;2023-02-13T08:55:20;100328.78;;;5.96;91.36
18323;BME280;9287;49.456;11.064;2023-02-13T08:57:49;100327.00;;;5.75;96.21
18323;BME280;9287;49.456;11.064;2023-02-13T09:00:18;100330.22;;;5.67;96.13
18323;BME280;9287;49.456;11.064;2023-02-13T09:02:45;100320.44;;;5.60;97.88
18323;BME280;9287;49.456;11.064;2023-02-13T09:05:13;100324.44;;;5.48;99.07
18323;BME280;9287;49.456;11.064;2023-02-13T09:07:41;100319.97;;;5.79;97.94
18323;BME280;9287;49.456;11.064;2023-02-13T09:10:09;100321.72;;;5.95;97.51
18323;BME280;9287;49.456;11.064;2023-02-13T09:12:37;100320.59;;;5.91;96.63
18323;BME280;9287;49.456;11.064;2023-02-13T09:15:07;100321.28;;;6.28;94.30
18323;BME280;9287;49.456;11.064;2023-02-13T09:17:35;100322.97;;;6.40;94.08
18323;BME280;9287;49.456;11.064;2023-02-13T09:20:03;100317.03;;;6.68;90.67
18323;BME280;9287;49.456;11.064;2023-02-13T09:22:31;100324.09;;;7.05;87.54
18323;BME280;9287;49.456;11.064;2023-02-13T09:24:59;100312.13;;;7.41;84.55
18323;BME280;9287;49.456;11.064;2023-02-13T09:27:29;100317.59;;;7.01;86.13
18323;BME280;9287;49.456;11.064;2023-02-13T09:29:57;100315.94;;;6.79;89.07
18323;BME280;9287;49.456;11.064;2023-02-13T09:32:27;100320.31;;;6.90;88.03
18323;BME280;9287;49.456;11.064;2023-02-13T09:34:55;100314.78;;;7.61;84.32
18323;BME280;9287;49.456;11.064;2023-02-13T09:37:22;100309.28;;;7.82;81.45
18323;BME280;9287;49.456;11.064;2023-02-13T09:39:50;100309.66;;;8.14;77.54
18323;BME280;9287;49.456;11.064;2023-02-13T09:42:20;100314.50;;;8.37;74.98
18323;BME280;9287;49.456;11.064;2023-02-13T09:44:51;100315.03;;;8.40;76.49
18323;BME280;9287;49.456;11.064;2023-02-13T09:47:27;100316.75;;;8.15;78.73
18323;BME280;9287;49.456;11.064;2023-02-13T09:49:59;100321.28;;;8.45;75.41
18323;BME280;9287;49.456;11.064;2023-02-13T09:52:32;100318.25;;;8.47;75.34
18323;BME280;9287;49.456;11.064;2023-02-13T09:55:00;100321.88;;;8.76;74.18
18323;BME280;9287;49.456;11.064;2023-02-13T09:57:32;100317.66;;;9.23;70.15
18323;BME280;9287;49.456;11.064;2023-02-13T10:00:05;100317.28;;;9.63;67.16
18323;BME280;9287;49.456;11.064;2023-02-13T10:03:05;100315.09;;;10.08;65.93
18323;BME280;9287;49.456;11.064;2023-02-13T10:05:44;100314.88;;;9.57;66.38
18323;BME280;9287;49.456;11.064;2023-02-13T10:08:25;100315.88;;;11.07;59.94
18323;BME280;9287;49.456;11.064;2023-02-13T10:11:01;100309.34;;;10.71;60.59
18323;BME280;9287;49.456;11.064;2023-02-13T10:13:44;100306.13;;;11.01;59.29
18323;BME280;9287;49.456;11.064;2023-02-13T10:16:16;100302.59;;;10.82;60.44
18323;BME280;9287;49.456;11.064;2023-02-13T10:18:50;100301.25;;;12.40;55.44
18323;BME280;9287;49.456;11.064;2023-02-13T10:21:21;100303.38;;;13.02;52.55
18323;BME280;9287;49.456;11.064;2023-02-13T10:23:56;100301.53;;;12.52;53.28
18323;BME280;9287;49.456;11.064;2023-02-13T10:26:28;100306.69;;;12.18;54.89
18323;BME280;9287;49.456;11.064;2023-02-13T10:29:13;100305.66;;;12.14;54.79
18323;BME280;9287;49.456;11.064;2023-02-13T10:32:04;100301.19;;;12.90;52.26
18323;BME280;9287;49.456;11.064;2023-02-13T10:34:41;100305.50;;;13.58;51.34
18323;BME280;9287;49.456;11.064;2023-02-13T10:37:14;100300.56;;;14.17;50.33
18323;BME280;9287;49.456;11.064;2023-02-13T10:39:44;100305.50;;;13.58;50.73
18323;BME280;9287;49.456;11.064;2023-02-13T10:42:20;100289.31;;;13.48;50.83
18323;BME280;9287;49.456;11.064;2023-02-13T10:45:00;100303.06;;;13.26;51.48
18323;BME280;9287;49.456;11.064;2023-02-13T10:47:48;100294.09;;;12.17;54.07
18323;BME280;9287;49.456;11.064;2023-02-13T10:50:25;100288.78;;;12.34;53.91
18323;BME280;9287;49.456;11.064;2023-02-13T10:53:10;100292.72;;;11.92;54.93
18323;BME280;9287;49.456;11.064;2023-02-13T10:55:50;100297.84;;;11.06;58.53
18323;BME280;9287;49.456;11.064;2023-02-13T10:58:30;100298.25;;;11.13;60.44
18323;BME280;9287;49.456;11.064;2023-02-13T11:01:05;100301.78;;;11.60;58.00
18323;BME280;9287;49.456;11.064;2023-02-13T11:03:35;100292.88;;;11.55;58.07
18323;BME280;9287;49.456;11.064;2023-02-13T11:06:07;100292.00;;;11.27;58.47
18323;BME280;9287;49.456;11.064;2023-02-13T11:08:39;100284.16;;;11.66;58.51
18323;BME280;9287;49.456;11.064;2023-02-13T11:11:30;100294.28;;;11.66;58.16
18323;BME280;9287;49.456;11.064;2023-02-13T11:14:25;100285.09;;;11.75;57.57
18323;BME280;9287;49.456;11.064;2023-02-13T11:16:55;100284.03;;;10.98;60.46
18323;BME280;9287;49.456;11.064;2023-02-13T11:19:28;100279.28;;;10.71;62.67
18323;BME280;9287;49.456;11.064;2023-02-13T11:21:59;100276.94;;;11.43;60.18
18323;BME280;9287;49.456;11.064;2023-02-13T11:24:28;100266.94;;;11.52;58.91
18323;BME280;9287;49.456;11.064;2023-02-13T11:27:00;100265.59;;;11.63;59.12
18323;BME280;9287;49.456;11.064;2023-02-13T11:29:31;100264.06;;;11.43;59.98
18323;BME280;9287;49.456;11.064;2023-02-13T11:32:17;100266.91;;;11.38;60.70
18323;BME280;9287;49.456;11.064;2023-02-13T11:34:47;100272.97;;;11.22;61.43
18323;BME280;9287;49.456;11.064;2023-02-13T11:37:22;100266.41;;;11.36;61.29
18323;BME280;9287;49.456;11.064;2023-02-13T11:39:52;100266.72;;;11.62;60.03
18323;BME280;9287;49.456;11.064;2023-02-13T11:42:28;100261.28;;;11.76;60.32
18323;BME280;9287;49.456;11.064;2023-02-13T11:45:00;100271.16;;;12.13;58.65
18323;BME280;9287;49.456;11.064;2023-02-13T11:47:34;100263.41;;;12.87;55.92
18323;BME280;9287;49.456;11.064;2023-02-13T11:50:03;100263.34;;;13.54;54.24
18323;BME280;9287;49.456;11.064;2023-02-13T11:52:32;100261.38;;;13.94;52.48
18323;BME280;9287;49.456;11.064;2023-02-13T11:55:04;100257.63;;;13.81;52.71
18323;BME280;9287;49.456;11.064;2023-02-13T11:57:35;100255.56;;;13.96;52.27
18323;BME280;9287;49.456;11.064;2023-02-13T12:00:27;100252.97;;;13.90;52.15
18323;BME280;9287;49.456;11.064;2023-02-13T12:02:56;100256.34;;;13.87;52.46
18323;BME280;9287;49.456;11.064;2023-02-13T12:05:26;100249.97;;;14.18;51.64
18323;BME280;9287;49.456;11.064;2023-02-13T12:07:56;100245.22;;;13.92;52.25
18323;BME280;9287;49.456;11.064;2023-02-13T12:10:27;100249.09;;;13.91;52.81
18323;BME280;9287;49.456;11.064;2023-02-13T12:12:57;100242.69;;;14.22;51.83
18323;BME280;9287;49.456;11.064;2023-02-13T12:15:28;100242.03;;;15.03;50.58
18323;BME280;9287;49.456;11.064;2023-02-13T12:18:04;100236.19;;;15.59;48.46
18323;BME280;9287;49.456;11.064;2023-02-13T12:20:43;100223.91;;;15.86;48.19
18323;BME280;9287;49.456;11.064;2023-02-13T12:23:27;100219.50;;;16.15;47.56
18323;BME280;9287;49.456;11.064;2023-02-13T12:26:11;100213.03;;;15.90;48.59
18323;BME280;9287;49.456;11.064;2023-02-13T12:28:52;100207.28;;;17.11;45.71
18323;BME280;9287;49.456;11.064;2023-02-13T12:31:37;100205.91;;;17.17;45.28
18323;BME280;9287;49.456;11.064;2023-02-13T12:34:30;100200.31;;;17.87;43.61
18323;BME280;9287;49.456;11.064;2023-02-13T12:37:12;100197.41;;;17.34;44.29
18323;BME280;9287;49.456;11.064;2023-02-13T12:39:53;100198.53;;;17.09;44.78
18323;BME280;9287;49.456;11.064;2023-02-13T12:42:36;100196.31;;;16.90;45.03
18323;BME280;9287;49.456;11.064;2023-02-13T12:45:16;100186.91;;;17.03;44.88
18323;BME280;9287;49.456;11.064;2023-02-13T12:48:02;100183.06;;;16.30;45.92
18323;BME280;9287;49.456;11.064;2023-02-13T12:50:40;100179.50;;;16.62;45.30
18323;BME280;9287;49.456;11.064;2023-02-13T12:53:23;100183.75;;;17.62;43.03
18323;BME280;9287;49.456;11.064;2023-02-13T12:56:16;100174.78;;;16.84;43.83
18323;BME280;9287;49.456;11.064;2023-02-13T12:58:56;100168.41;;;16.38;45.48
18323;BME280;9287;49.456;11.064;2023-02-13T13:01:44;100174.84;;;16.00;46.08
18323;BME280;9287;49.456;11.064;2023-02-13T13:04:24;100172.56;;;15.44;47.50
18323;BME280;9287;49.456;11.064;2023-02-13T13:07:06;100157.53;;;16.21;45.62
18323;BME280;9287;49.456;11.064;2023-02-13T13:12:45;100156.31;;;16.10;45.00
18323;BME280;9287;49.456;11.064;2023-02-13T13:15:23;100152.94;;;16.25;45.03
18323;BME280;9287;49.456;11.064;2023-02-13T13:17:59;100156.91;;;15.94;45.87
18323;BME280;9287;49.456;11.064;2023-02-13T13:20:51;100159.03;;;15.68;46.07
18323;BME280;9287;49.456;11.064;2023-02-13T13:23:26;100159.44;;;15.11;47.05
18323;BME280;9287;49.456;11.064;2023-02-13T13:26:04;100150.88;;;14.40;49.13
18323;BME280;9287;49.456;11.064;2023-02-13T13:28:36;100150.84;;;14.23;49.97